Time;durP1;ratioP1;P1;durP2;ratioP2;P2;SDS_P1;SDS_P2;PMS_P1;PMS_P2;Temp;Humidity;BMP_temperature;BMP_pressure;BME280_temperature;BME280_humidity;BME280_pressure;Samples;Min_cycle;Max_cycle;Signal;HPM_P1;HPM_P2
2023/11/04 00:00:06;;;;;;;2.42;1.50;;;;;;;;;;5017104;28;20390;-87
2023/11/04 00:02:34;;;;;;;1.63;1.50;;;;;;;;;;5019325;28;20210;-86
2023/11/04 00:05:01;;;;;;;1.17;1.10;;;;;;;;;;5017086;28;20269;-88
2023/11/04 00:07:29;;;;;;;1.73;1.20;;;;;;;;;;5024519;28;20234;-86
2023/11/04 00:09:59;;;;;;;2.28;1.20;;;;;;;;;;5024280;28;20736;-87
2023/11/04 00:12:27;;;;;;;3.38;1.25;;;;;;;;;;5016572;28;20210;-86
2023/11/04 00:14:54;;;;;;;1.00;0.98;;;;;;;;;;5024353;28;20223;-87
2023/11/04 00:17:22;;;;;;;1.42;1.20;;;;;;;;;;5015743;28;20210;-87
2023/11/04 00:19:49;;;;;;;1.80;1.50;;;;;;;;;;5024539;28;20232;-85
2023/11/04 00:22:17;;;;;;;3.72;1.30;;;;;;;;;;5016316;28;20668;-86
2023/11/04 00:24:47;;;;;;;2.80;1.33;;;;;;;;;;5023621;28;20215;-86
2023/11/04 00:27:16;;;;;;;3.15;1.30;;;;;;;;;;5026978;28;20202;-88
2023/11/04 00:29:44;;;;;;;2.80;1.40;;;;;;;;;;5019773;28;20687;-87
2023/11/04 00:32:11;;;;;;;1.40;1.30;;;;;;;;;;5016918;28;20664;-87
2023/11/04 00:34:38;;;;;;;1.98;1.17;;;;;;;;;;5015229;28;20647;-87
2023/11/04 00:37:06;;;;;;;2.03;1.30;;;;;;;;;;5015795;28;20643;-86
2023/11/04 00:39:33;;;;;;;2.65;1.80;;;;;;;;;;5014795;28;20655;-86
2023/11/04 00:42:01;;;;;;;5.20;1.60;;;;;;;;;;5022553;28;20202;-86
2023/11/04 00:44:30;;;;;;;2.20;1.70;;;;;;;;;;5020459;28;20226;-87
2023/11/04 00:46:58;;;;;;;3.38;1.40;;;;;;;;;;5017203;28;20305;-87
2023/11/04 00:49:25;;;;;;;2.72;1.80;;;;;;;;;;5015597;28;20203;-87
2023/11/04 00:51:53;;;;;;;1.98;1.42;;;;;;;;;;5019094;28;20198;-86
2023/11/04 00:54:20;;;;;;;2.88;1.92;;;;;;;;;;5031568;28;20237;-87
2023/11/04 00:56:48;;;;;;;2.90;1.98;;;;;;;;;;5016397;28;20203;-86
2023/11/04 00:59:15;;;;;;;2.95;1.52;;;;;;;;;;5022042;28;20653;-87
2023/11/04 01:01:44;;;;;;;1.85;1.70;;;;;;;;;;5015007;28;20203;-88
2023/11/04 01:04:12;;;;;;;2.03;1.65;;;;;;;;;;5021649;28;20233;-87
2023/11/04 01:06:39;;;;;;;2.08;1.77;;;;;;;;;;5015267;28;20286;-85
2023/11/04 01:09:07;;;;;;;3.72;2.35;;;;;;;;;;5015196;28;20194;-87
2023/11/04 01:11:35;;;;;;;2.90;1.98;;;;;;;;;;5021765;28;20204;-86
2023/11/04 01:14:02;;;;;;;2.80;2.08;;;;;;;;;;5015218;28;20317;-87
2023/11/04 01:16:30;;;;;;;2.90;1.70;;;;;;;;;;5014146;28;20230;-87
2023/11/04 01:18:59;;;;;;;2.70;2.50;;;;;;;;;;5022253;28;20622;-87
2023/11/04 01:21:26;;;;;;;1.65;1.52;;;;;;;;;;5014786;28;20576;-87
2023/11/04 01:23:54;;;;;;;2.25;1.70;;;;;;;;;;5015891;28;20226;-85
2023/11/04 01:26:22;;;;;;;2.22;1.75;;;;;;;;;;5021057;28;20211;-87
2023/11/04 01:28:49;;;;;;;1.90;1.80;;;;;;;;;;5021945;28;20643;-87
2023/11/04 01:31:17;;;;;;;1.50;1.40;;;;;;;;;;5015335;28;20203;-86
2023/11/04 01:33:44;;;;;;;1.67;1.55;;;;;;;;;;5017645;28;20231;-86
2023/11/04 01:36:13;;;;;;;2.35;2.05;;;;;;;;;;5017498;28;20301;-86
2023/11/04 01:38:41;;;;;;;2.55;1.80;;;;;;;;;;5026214;28;20203;-86
2023/11/04 01:41:08;;;;;;;3.83;1.90;;;;;;;;;;5014070;28;20203;-87
2023/11/04 01:43:36;;;;;;;2.22;1.75;;;;;;;;;;5014096;28;20203;-87
2023/11/04 01:46:19;;;;;;;3.38;1.90;;;;;;;;;;5015162;28;20249;-86
2023/11/04 01:48:47;;;;;;;2.50;2.08;;;;;;;;;;5014315;28;20285;-85
2023/11/04 01:51:16;;;;;;;3.17;2.40;;;;;;;;;;5025039;28;20272;-86
2023/11/04 01:53:46;;;;;;;2.72;2.03;;;;;;;;;;5016987;28;20210;-86
2023/11/04 01:56:16;;;;;;;3.10;2.00;;;;;;;;;;5018133;28;20644;-87
2023/11/04 01:58:46;;;;;;;5.50;1.90;;;;;;;;;;5025832;28;20205;-87
2023/11/04 02:01:15;;;;;;;4.50;2.70;;;;;;;;;;5014565;28;20266;-87
2023/11/04 02:03:42;;;;;;;2.53;2.33;;;;;;;;;;5020803;28;20313;-87
2023/11/04 02:06:10;;;;;;;2.40;2.15;;;;;;;;;;5022083;28;20582;-86
2023/11/04 02:08:39;;;;;;;2.63;2.08;;;;;;;;;;5022745;28;20205;-87
2023/11/04 02:11:06;;;;;;;2.92;2.17;;;;;;;;;;5014534;28;20242;-87
2023/11/04 02:13:34;;;;;;;3.85;2.33;;;;;;;;;;5013720;28;20653;-88
2023/11/04 02:16:01;;;;;;;3.33;2.17;;;;;;;;;;5014020;28;20714;-88
2023/11/04 02:18:30;;;;;;;2.08;1.90;;;;;;;;;;5014017;28;20203;-86
2023/11/04 02:21:00;;;;;;;2.03;1.80;;;;;;;;;;5016215;28;20269;-87
2023/11/04 02:23:28;;;;;;;1.80;1.70;;;;;;;;;;5024662;28;20676;-87
2023/11/04 02:25:56;;;;;;;3.35;2.00;;;;;;;;;;5015041;28;20219;-86
2023/11/04 02:28:23;;;;;;;5.10;1.90;;;;;;;;;;5018514;28;20208;-88
2023/11/04 02:30:51;;;;;;;2.08;1.88;;;;;;;;;;5027237;28;20282;-83
2023/11/04 02:33:18;;;;;;;2.05;1.85;;;;;;;;;;5037227;28;20203;-84
2023/11/04 02:35:46;;;;;;;2.17;1.60;;;;;;;;;;5037445;28;20214;-84
2023/11/04 02:38:15;;;;;;;3.03;1.60;;;;;;;;;;5030552;28;20203;-86
2023/11/04 02:40:42;;;;;;;2.50;1.95;;;;;;;;;;5015824;28;20252;-85
2023/11/04 02:43:10;;;;;;;1.73;1.63;;;;;;;;;;5025058;28;20652;-86
2023/11/04 02:45:37;;;;;;;1.52;1.42;;;;;;;;;;5018738;28;20314;-87
2023/11/04 02:48:05;;;;;;;1.50;1.40;;;;;;;;;;5014434;28;20233;-86
2023/11/04 02:50:33;;;;;;;2.65;1.60;;;;;;;;;;5013897;28;20238;-86
2023/11/04 02:53:00;;;;;;;2.22;2.03;;;;;;;;;;5013383;28;20362;-86
2023/11/04 02:55:29;;;;;;;1.73;1.63;;;;;;;;;;5019991;28;20262;-88
2023/11/04 02:57:57;;;;;;;1.80;1.63;;;;;;;;;;5016905;28;20526;-88
2023/11/04 03:00:25;;;;;;;3.60;2.10;;;;;;;;;;5013812;28;20736;-88
2023/11/04 03:02:52;;;;;;;2.10;1.73;;;;;;;;;;5023643;28;20744;-88
2023/11/04 03:05:20;;;;;;;4.30;1.90;;;;;;;;;;5025170;28;20235;-86
2023/11/04 03:07:47;;;;;;;1.60;1.50;;;;;;;;;;5018983;28;20213;-86
2023/11/04 03:10:15;;;;;;;2.03;1.92;;;;;;;;;;5026380;28;20203;-87
2023/11/04 03:12:44;;;;;;;1.75;1.60;;;;;;;;;;5025576;28;20238;-87
2023/11/04 03:15:12;;;;;;;3.80;2.10;;;;;;;;;;5025322;28;20246;-87
2023/11/04 03:17:40;;;;;;;1.70;1.60;;;;;;;;;;5018393;28;20655;-86
2023/11/04 03:20:09;;;;;;;1.80;1.30;;;;;;;;;;5018250;28;20245;-87
2023/11/04 03:22:37;;;;;;;1.77;1.65;;;;;;;;;;5026759;28;20229;-88
2023/11/04 03:25:05;;;;;;;2.47;1.67;;;;;;;;;;5017206;28;20254;-87
2023/11/04 03:27:33;;;;;;;1.35;1.23;;;;;;;;;;5017786;28;20203;-87
2023/11/04 03:30:02;;;;;;;1.52;1.40;;;;;;;;;;5025607;28;20282;-87
2023/11/04 03:32:30;;;;;;;1.48;1.10;;;;;;;;;;5018669;28;20238;-86
2023/11/04 03:34:58;;;;;;;1.45;1.25;;;;;;;;;;5017885;28;20226;-86
2023/11/04 03:37:25;;;;;;;1.25;1.15;;;;;;;;;;5037532;28;20298;-86
2023/11/04 03:39:53;;;;;;;2.17;1.15;;;;;;;;;;5021321;28;20218;-86
2023/11/04 03:42:21;;;;;;;1.30;1.20;;;;;;;;;;5032920;28;20558;-87
2023/11/04 03:44:48;;;;;;;1.38;1.20;;;;;;;;;;5025052;28;20227;-87
2023/11/04 03:47:17;;;;;;;1.67;1.58;;;;;;;;;;5017430;28;20242;-86
2023/11/04 03:49:45;;;;;;;1.77;1.08;;;;;;;;;;5033116;28;20293;-87
2023/11/04 03:52:13;;;;;;;1.50;1.40;;;;;;;;;;5036672;28;20206;-87
2023/11/04 03:54:41;;;;;;;1.85;1.40;;;;;;;;;;5020732;28;20584;-87
2023/11/04 03:57:08;;;;;;;2.58;1.30;;;;;;;;;;5016267;28;20207;-86
2023/11/04 03:59:36;;;;;;;1.75;1.60;;;;;;;;;;5016904;28;20205;-87
2023/11/04 04:02:03;;;;;;;1.63;1.52;;;;;;;;;;5018328;28;20657;-87
2023/11/04 04:04:32;;;;;;;3.80;1.70;;;;;;;;;;5016759;28;20663;-87
2023/11/04 04:07:00;;;;;;;2.78;1.38;;;;;;;;;;5025295;28;20238;-87
2023/11/04 04:09:27;;;;;;;1.38;1.27;;;;;;;;;;5017748;28;20203;-87
2023/11/04 04:11:55;;;;;;;1.85;1.70;;;;;;;;;;5018507;28;20211;-88
2023/11/04 04:14:22;;;;;;;1.20;1.17;;;;;;;;;;5023190;28;20219;-86
2023/11/04 04:16:50;;;;;;;3.78;1.65;;;;;;;;;;5015857;28;20301;-89
2023/11/04 04:19:17;;;;;;;1.10;1.10;;;;;;;;;;5028053;28;20663;-87
2023/11/04 04:21:46;;;;;;;1.40;1.30;;;;;;;;;;5020572;28;20238;-88
2023/11/04 04:24:14;;;;;;;1.13;1.02;;;;;;;;;;5027290;28;20218;-88
2023/11/04 04:26:41;;;;;;;1.40;1.30;;;;;;;;;;5035948;28;20199;-86
2023/11/04 04:29:09;;;;;;;1.30;1.25;;;;;;;;;;5024510;28;20280;-86
2023/11/04 04:31:36;;;;;;;1.30;1.20;;;;;;;;;;5025245;28;20202;-87
2023/11/04 04:34:04;;;;;;;1.60;1.30;;;;;;;;;;5035804;28;20598;-87
2023/11/04 04:36:31;;;;;;;1.27;1.17;;;;;;;;;;5021766;28;20222;-87
2023/11/04 04:39:00;;;;;;;1.48;1.25;;;;;;;;;;5025383;28;20724;-87
2023/11/04 04:41:28;;;;;;;1.92;1.40;;;;;;;;;;5032338;28;20571;-86
2023/11/04 04:43:55;;;;;;;1.50;1.40;;;;;;;;;;5024051;28;20218;-88
2023/11/04 04:46:23;;;;;;;1.48;1.38;;;;;;;;;;5027041;28;20203;-89
2023/11/04 04:48:50;;;;;;;2.05;1.67;;;;;;;;;;5026583;28;20202;-88
2023/11/04 04:51:18;;;;;;;1.10;1.10;;;;;;;;;;5030618;28;20234;-89
2023/11/04 04:53:46;;;;;;;1.10;1.10;;;;;;;;;;5014855;28;20210;-86
2023/11/04 04:56:15;;;;;;;1.15;1.15;;;;;;;;;;5023791;28;20373;-87
2023/11/04 04:58:43;;;;;;;1.15;1.15;;;;;;;;;;5015048;28;20205;-88
2023/11/04 05:01:18;;;;;;;1.23;1.15;;;;;;;;;;5017422;28;20209;-87
2023/11/04 05:03:46;;;;;;;2.60;1.60;;;;;;;;;;5026387;28;20617;-88
2023/11/04 05:06:14;;;;;;;1.42;1.20;;;;;;;;;;5025477;28;20285;-88
2023/11/04 05:08:41;;;;;;;2.83;1.38;;;;;;;;;;5026209;28;20198;-86
2023/11/04 05:11:09;;;;;;;2.38;1.23;;;;;;;;;;5026065;28;20217;-87
2023/11/04 05:13:38;;;;;;;1.08;1.08;;;;;;;;;;5025778;28;20213;-86
2023/11/04 05:16:07;;;;;;;1.20;1.10;;;;;;;;;;5025385;28;20708;-87
2023/11/04 05:18:35;;;;;;;2.20;1.48;;;;;;;;;;5028032;28;20687;-87
2023/11/04 05:21:03;;;;;;;1.10;1.10;;;;;;;;;;5016255;28;20203;-88
2023/11/04 05:23:31;;;;;;;1.35;1.25;;;;;;;;;;5033621;28;20206;-87
2023/11/04 05:25:58;;;;;;;1.40;1.33;;;;;;;;;;5017897;28;20219;-88
2023/11/04 05:28:27;;;;;;;1.48;1.15;;;;;;;;;;5033200;28;20206;-87
2023/11/04 05:30:56;;;;;;;2.10;1.30;;;;;;;;;;5026006;28;20585;-86
2023/11/04 05:33:25;;;;;;;1.50;1.40;;;;;;;;;;5020596;28;20427;-87
2023/11/04 05:35:53;;;;;;;1.23;1.13;;;;;;;;;;5029630;28;20218;-87
2023/11/04 05:38:23;;;;;;;1.58;1.30;;;;;;;;;;5029295;28;20199;-86
2023/11/04 05:40:50;;;;;;;1.20;1.20;;;;;;;;;;5030583;28;20202;-86
2023/11/04 05:43:18;;;;;;;1.00;1.00;;;;;;;;;;5027764;28;20615;-87
2023/11/04 05:45:46;;;;;;;1.20;1.10;;;;;;;;;;5014501;28;20227;-86
2023/11/04 05:48:14;;;;;;;1.40;1.30;;;;;;;;;;5013827;28;20258;-87
2023/11/04 05:50:42;;;;;;;1.10;1.00;;;;;;;;;;5029715;28;20208;-86
2023/11/04 05:53:09;;;;;;;1.58;1.20;;;;;;;;;;5014639;28;20290;-88
2023/11/04 05:55:37;;;;;;;1.30;1.23;;;;;;;;;;5014316;28;20229;-86
2023/11/04 05:58:05;;;;;;;1.67;1.27;;;;;;;;;;5023517;28;20249;-87
2023/11/04 06:00:33;;;;;;;1.40;1.30;;;;;;;;;;5018930;28;20208;-87
2023/11/04 06:03:00;;;;;;;1.88;1.27;;;;;;;;;;5024562;28;20285;-86
2023/11/04 06:05:29;;;;;;;1.65;1.52;;;;;;;;;;5032697;28;20726;-88
2023/11/04 06:07:57;;;;;;;1.55;1.45;;;;;;;;;;5024491;28;20237;-86
2023/11/04 06:10:24;;;;;;;2.08;1.30;;;;;;;;;;5025813;28;20202;-86
2023/11/04 06:12:52;;;;;;;1.60;1.50;;;;;;;;;;5017668;28;20210;-86
2023/11/04 06:15:20;;;;;;;1.17;1.17;;;;;;;;;;5013797;28;20227;-88
2023/11/04 06:17:48;;;;;;;1.35;1.25;;;;;;;;;;5021261;28;20279;-87
2023/11/04 06:20:15;;;;;;;3.17;1.40;;;;;;;;;;5023692;28;20202;-87
2023/11/04 06:22:44;;;;;;;1.00;1.00;;;;;;;;;;5024738;28;20285;-86
2023/11/04 06:25:12;;;;;;;2.10;1.73;;;;;;;;;;5023799;28;20245;-86
2023/11/04 06:27:39;;;;;;;1.50;1.40;;;;;;;;;;5018630;28;20209;-87
2023/11/04 06:30:08;;;;;;;2.88;1.30;;;;;;;;;;5020830;28;20198;-86
2023/11/04 06:32:37;;;;;;;1.70;1.00;;;;;;;;;;5026745;28;20640;-86
2023/11/04 06:35:06;;;;;;;1.23;1.13;;;;;;;;;;5024366;28;20301;-88
2023/11/04 06:37:33;;;;;;;2.00;1.20;;;;;;;;;;5032425;28;20226;-86
2023/11/04 06:40:02;;;;;;;1.40;1.30;;;;;;;;;;5035366;28;20261;-86
2023/11/04 06:42:30;;;;;;;0.95;0.90;;;;;;;;;;5034476;28;20570;-88
2023/11/04 06:44:57;;;;;;;1.30;1.20;;;;;;;;;;5028475;28;20774;-87
2023/11/04 06:47:25;;;;;;;1.25;1.17;;;;;;;;;;5036956;28;20241;-85
2023/11/04 06:49:52;;;;;;;1.13;0.90;;;;;;;;;;5026855;28;20332;-87
2023/11/04 06:52:20;;;;;;;0.93;0.93;;;;;;;;;;5025046;28;20209;-88
2023/11/04 06:54:47;;;;;;;1.13;1.10;;;;;;;;;;5024736;28;20222;-87
2023/11/04 06:57:16;;;;;;;0.88;0.85;;;;;;;;;;5028262;28;20226;-86
2023/11/04 06:59:44;;;;;;;1.00;1.00;;;;;;;;;;5030130;28;20266;-86
2023/11/04 07:02:12;;;;;;;3.72;1.38;;;;;;;;;;5020662;28;20517;-87
2023/11/04 07:04:40;;;;;;;0.93;0.93;;;;;;;;;;5027169;28;20234;-87
2023/11/04 07:07:08;;;;;;;1.45;1.00;;;;;;;;;;5026064;28;20210;-87
2023/11/04 07:09:36;;;;;;;1.20;1.10;;;;;;;;;;5018321;28;20203;-86
2023/11/04 07:12:04;;;;;;;1.73;1.30;;;;;;;;;;5035776;28;20199;-87
2023/11/04 07:14:33;;;;;;;1.52;1.42;;;;;;;;;;5037683;28;20686;-87
2023/11/04 07:17:01;;;;;;;0.90;0.90;;;;;;;;;;5035184;28;20293;-87
2023/11/04 07:19:28;;;;;;;1.30;1.20;;;;;;;;;;5018783;28;20226;-88
2023/11/04 07:21:56;;;;;;;1.35;0.95;;;;;;;;;;5026445;28;20725;-87
2023/11/04 07:24:23;;;;;;;1.05;0.88;;;;;;;;;;5035982;28;20311;-87
2023/11/04 07:26:51;;;;;;;2.25;1.20;;;;;;;;;;5052088;28;20250;-84
2023/11/04 07:29:19;;;;;;;0.95;0.95;;;;;;;;;;5051604;28;20194;-84
2023/11/04 07:31:48;;;;;;;1.80;0.95;;;;;;;;;;5059176;28;20197;-83
2023/11/04 07:34:15;;;;;;;1.02;1.02;;;;;;;;;;5045885;28;20288;-86
2023/11/04 07:36:44;;;;;;;1.23;1.10;;;;;;;;;;5037437;28;20285;-85
2023/11/04 07:39:11;;;;;;;0.90;0.90;;;;;;;;;;5027281;28;20254;-86
2023/11/04 07:41:41;;;;;;;1.17;0.95;;;;;;;;;;5036138;28;20271;-86
2023/11/04 07:44:09;;;;;;;1.08;0.95;;;;;;;;;;5034544;28;20744;-86
2023/11/04 07:46:37;;;;;;;1.20;1.10;;;;;;;;;;5035897;28;20206;-86
2023/11/04 07:49:06;;;;;;;1.40;1.35;;;;;;;;;;5036973;28;20233;-86
2023/11/04 07:51:34;;;;;;;0.90;0.90;;;;;;;;;;5031365;28;20265;-85
2023/11/04 07:54:01;;;;;;;0.93;0.93;;;;;;;;;;5016261;28;20576;-87
2023/11/04 07:56:29;;;;;;;1.17;1.00;;;;;;;;;;5017591;28;20229;-87
2023/11/04 07:58:56;;;;;;;0.90;0.90;;;;;;;;;;5017996;28;20310;-85
2023/11/04 08:01:24;;;;;;;2.58;0.98;;;;;;;;;;5035612;28;20642;-87
2023/11/04 08:03:51;;;;;;;2.13;1.10;;;;;;;;;;5019079;28;20213;-88
2023/11/04 08:06:20;;;;;;;0.70;0.70;;;;;;;;;;5028590;28;20230;-88
2023/11/04 08:08:48;;;;;;;1.33;1.23;;;;;;;;;;5035369;28;20234;-87
2023/11/04 08:11:15;;;;;;;1.10;1.10;;;;;;;;;;5033682;28;20195;-86
2023/11/04 08:13:43;;;;;;;3.42;1.10;;;;;;;;;;5022999;28;20202;-88
2023/11/04 08:16:11;;;;;;;1.35;0.82;;;;;;;;;;5025245;28;20217;-87
2023/11/04 08:18:38;;;;;;;0.80;0.80;;;;;;;;;;5034905;28;20680;-86
2023/11/04 08:21:06;;;;;;;0.90;0.90;;;;;;;;;;5027749;28;20222;-87
2023/11/04 08:23:35;;;;;;;1.83;1.05;;;;;;;;;;5030194;28;20736;-87
2023/11/04 08:26:03;;;;;;;1.00;1.00;;;;;;;;;;5031087;28;20218;-86
2023/11/04 08:28:31;;;;;;;0.90;0.90;;;;;;;;;;5028130;28;20203;-86
2023/11/04 08:31:00;;;;;;;1.30;1.20;;;;;;;;;;5035219;28;20203;-89
2023/11/04 08:33:28;;;;;;;1.20;1.10;;;;;;;;;;5016908;28;20206;-88
2023/11/04 08:35:56;;;;;;;0.85;0.85;;;;;;;;;;5031070;28;20249;-86
2023/11/04 08:38:23;;;;;;;1.67;0.95;;;;;;;;;;5023673;28;20223;-88
2023/11/04 08:40:52;;;;;;;0.90;0.90;;;;;;;;;;5029528;28;20229;-86
2023/11/04 08:43:20;;;;;;;0.98;0.90;;;;;;;;;;5019129;28;20683;-86
2023/11/04 08:45:47;;;;;;;0.70;0.70;;;;;;;;;;5035228;28;20598;-86
2023/11/04 08:48:15;;;;;;;1.67;0.88;;;;;;;;;;5033663;28;20197;-85
2023/11/04 08:50:43;;;;;;;1.00;0.88;;;;;;;;;;5033323;28;20249;-87
2023/11/04 08:53:10;;;;;;;1.60;1.00;;;;;;;;;;5027245;28;20561;-86
2023/11/04 08:55:38;;;;;;;1.33;1.20;;;;;;;;;;5019288;28;20226;-88
2023/11/04 08:58:07;;;;;;;1.00;1.00;;;;;;;;;;5015277;28;20230;-87
2023/11/04 09:00:34;;;;;;;0.90;0.90;;;;;;;;;;5020450;28;20229;-86
2023/11/04 09:03:02;;;;;;;0.70;0.70;;;;;;;;;;5036104;28;20202;-86
2023/11/04 09:05:29;;;;;;;0.93;0.93;;;;;;;;;;5034006;28;20224;-86
2023/11/04 09:07:57;;;;;;;0.80;0.80;;;;;;;;;;5032281;28;20195;-86
2023/11/04 09:10:24;;;;;;;2.90;1.30;;;;;;;;;;5033972;28;20225;-87
2023/11/04 09:12:52;;;;;;;1.40;1.30;;;;;;;;;;5034235;28;20245;-88
2023/11/04 09:15:21;;;;;;;1.10;1.00;;;;;;;;;;5019732;28;20210;-88
2023/11/04 09:17:49;;;;;;;1.90;1.17;;;;;;;;;;5033402;28;20207;-86
2023/11/04 09:20:16;;;;;;;1.15;1.10;;;;;;;;;;5027864;28;20230;-87
2023/11/04 09:22:44;;;;;;;1.33;1.23;;;;;;;;;;5021654;28;20211;-87
2023/11/04 09:25:12;;;;;;;3.83;1.45;;;;;;;;;;5034754;28;20245;-85
2023/11/04 09:27:39;;;;;;;1.27;0.90;;;;;;;;;;5033558;28;20228;-85
2023/11/04 09:30:08;;;;;;;1.35;1.15;;;;;;;;;;5031866;28;20244;-88
2023/11/04 09:32:37;;;;;;;1.33;0.98;;;;;;;;;;5035267;28;20202;-85
2023/11/04 09:35:06;;;;;;;1.10;1.10;;;;;;;;;;5031012;28;20774;-86
2023/11/04 09:37:33;;;;;;;0.70;0.70;;;;;;;;;;5027141;28;20290;-87
2023/11/04 09:40:01;;;;;;;1.00;1.00;;;;;;;;;;5029325;28;20249;-87
2023/11/04 09:42:29;;;;;;;0.63;0.63;;;;;;;;;;5031931;28;20648;-87
2023/11/04 09:44:57;;;;;;;0.98;0.98;;;;;;;;;;5031856;28;20312;-86
2023/11/04 09:47:25;;;;;;;0.90;0.90;;;;;;;;;;5033612;28;20225;-89
2023/11/04 09:49:54;;;;;;;0.90;0.90;;;;;;;;;;5032190;28;20201;-87
2023/11/04 09:52:22;;;;;;;0.90;0.90;;;;;;;;;;5027422;28;20281;-85
2023/11/04 09:54:50;;;;;;;0.90;0.90;;;;;;;;;;5032812;28;20301;-86
2023/11/04 09:57:18;;;;;;;0.77;0.77;;;;;;;;;;5016296;28;20213;-87
2023/11/04 09:59:45;;;;;;;1.10;0.88;;;;;;;;;;5024360;28;20214;-88
2023/11/04 10:02:14;;;;;;;1.02;0.95;;;;;;;;;;5017468;28;20590;-86
2023/11/04 10:04:42;;;;;;;1.20;1.10;;;;;;;;;;5032420;28;20741;-86
2023/11/04 10:07:11;;;;;;;0.82;0.82;;;;;;;;;;5023785;28;20237;-86
2023/11/04 10:09:38;;;;;;;1.30;1.20;;;;;;;;;;5028825;28;20203;-85
2023/11/04 10:12:06;;;;;;;2.08;1.10;;;;;;;;;;5030873;28;20615;-86
2023/11/04 10:14:34;;;;;;;1.38;1.27;;;;;;;;;;5026982;28;20231;-87
2023/11/04 10:17:01;;;;;;;0.88;0.88;;;;;;;;;;5029739;28;20222;-88
2023/11/04 10:19:29;;;;;;;1.25;1.15;;;;;;;;;;5033092;28;20284;-87
2023/11/04 10:21:57;;;;;;;0.80;0.80;;;;;;;;;;5031667;28;20655;-86
2023/11/04 10:24:26;;;;;;;2.13;1.73;;;;;;;;;;5033684;28;20216;-85
2023/11/04 10:26:53;;;;;;;1.40;1.30;;;;;;;;;;5026067;28;20671;-85
2023/11/04 10:29:21;;;;;;;0.98;0.98;;;;;;;;;;5018716;28;20592;-86
2023/11/04 10:31:49;;;;;;;2.53;1.50;;;;;;;;;;5025582;28;20266;-86
2023/11/04 10:34:17;;;;;;;1.63;1.52;;;;;;;;;;5033127;28;20735;-88
2023/11/04 10:36:47;;;;;;;1.42;1.33;;;;;;;;;;5031958;28;20208;-87
2023/11/04 10:39:16;;;;;;;1.50;1.15;;;;;;;;;;5024588;28;20614;-87
2023/11/04 10:41:50;;;;;;;3.10;1.38;;;;;;;;;;5032975;28;20199;-86
2023/11/04 10:44:22;;;;;;;1.00;1.00;;;;;;;;;;5032315;28;20305;-86
2023/11/04 10:46:57;;;;;;;0.90;0.90;;;;;;;;;;5025400;28;20248;-87
2023/11/04 10:49:28;;;;;;;1.08;1.00;;;;;;;;;;5017318;28;20220;-89
2023/11/04 10:52:01;;;;;;;1.20;1.10;;;;;;;;;;5024642;28;20219;-87
2023/11/04 10:54:36;;;;;;;0.60;0.60;;;;;;;;;;5018510;28;20228;-86
2023/11/04 10:57:17;;;;;;;0.82;0.82;;;;;;;;;;5017698;28;20226;-86
2023/11/04 10:59:54;;;;;;;0.60;0.60;;;;;;;;;;5028596;28;20223;-86
2023/11/04 11:02:23;;;;;;;3.03;1.00;;;;;;;;;;5025068;28;20198;-88
2023/11/04 11:04:51;;;;;;;0.75;0.75;;;;;;;;;;5030685;28;20743;-88
2023/11/04 11:07:20;;;;;;;0.95;0.80;;;;;;;;;;5031426;28;20225;-85
2023/11/04 11:09:48;;;;;;;0.80;0.80;;;;;;;;;;5024644;28;20289;-87
2023/11/04 11:12:22;;;;;;;1.05;0.85;;;;;;;;;;5015906;28;20215;-86
2023/11/04 11:14:51;;;;;;;0.93;0.82;;;;;;;;;;5023797;28;20214;-85
2023/11/04 11:17:18;;;;;;;1.25;1.00;;;;;;;;;;5024087;28;20266;-87
2023/11/04 11:19:51;;;;;;;1.58;0.98;;;;;;;;;;5033930;28;20261;-86
2023/11/04 11:22:24;;;;;;;1.13;0.75;;;;;;;;;;5021069;28;20199;-86
2023/11/04 11:24:53;;;;;;;0.93;0.85;;;;;;;;;;5028908;28;20219;-85
2023/11/04 11:27:22;;;;;;;1.75;1.05;;;;;;;;;;5048359;28;20217;-86
2023/11/04 11:29:53;;;;;;;2.35;0.70;;;;;;;;;;5056792;28;20209;-84
2023/11/04 11:32:20;;;;;;;1.85;0.73;;;;;;;;;;5055845;28;20226;-85
2023/11/04 11:34:52;;;;;;;0.93;0.85;;;;;;;;;;5058627;28;20225;-85
2023/11/04 11:37:21;;;;;;;0.80;0.80;;;;;;;;;;5047304;28;20218;-86
2023/11/04 11:39:49;;;;;;;0.80;0.80;;;;;;;;;;5057791;28;20222;-85
2023/11/04 11:42:17;;;;;;;0.75;0.65;;;;;;;;;;5056799;28;20218;-85
2023/11/04 11:44:46;;;;;;;1.92;1.58;;;;;;;;;;5050387;28;20242;-85
2023/11/04 11:47:13;;;;;;;1.08;1.08;;;;;;;;;;5040069;28;20218;-86
2023/11/04 11:49:41;;;;;;;1.42;0.90;;;;;;;;;;5058317;28;20186;-85
2023/11/04 11:52:08;;;;;;;0.50;0.50;;;;;;;;;;5056111;28;20198;-85
2023/11/04 11:54:36;;;;;;;1.90;0.70;;;;;;;;;;5052574;28;20203;-86
2023/11/04 11:57:05;;;;;;;0.77;0.77;;;;;;;;;;5055307;28;20206;-84
2023/11/04 11:59:35;;;;;;;0.70;0.70;;;;;;;;;;5053762;28;20192;-85
2023/11/04 12:02:07;;;;;;;1.17;0.70;;;;;;;;;;5056512;28;20217;-85
2023/11/04 12:04:35;;;;;;;1.23;0.80;;;;;;;;;;5047215;28;20241;-86
2023/11/04 12:07:02;;;;;;;0.93;0.90;;;;;;;;;;5048075;28;20206;-84
2023/11/04 12:09:30;;;;;;;0.73;0.70;;;;;;;;;;5056747;28;20262;-84
2023/11/04 12:11:57;;;;;;;0.82;0.80;;;;;;;;;;5057333;28;20225;-83
2023/11/04 12:14:25;;;;;;;0.70;0.70;;;;;;;;;;5051676;28;20218;-85
2023/11/04 12:16:54;;;;;;;0.80;0.80;;;;;;;;;;5049547;28;20189;-86
2023/11/04 12:19:23;;;;;;;0.80;0.80;;;;;;;;;;5055265;28;20178;-86
2023/11/04 12:21:50;;;;;;;1.15;0.70;;;;;;;;;;5049073;28;20222;-84
2023/11/04 12:24:18;;;;;;;0.75;0.68;;;;;;;;;;5048498;28;20237;-87
2023/11/04 12:26:46;;;;;;;0.85;0.85;;;;;;;;;;5057958;28;20183;-85
2023/11/04 12:29:14;;;;;;;0.70;0.70;;;;;;;;;;5048353;28;20207;-85
2023/11/04 12:31:41;;;;;;;0.60;0.60;;;;;;;;;;5058550;28;20242;-84
2023/11/04 12:34:09;;;;;;;0.80;0.80;;;;;;;;;;5056826;28;20267;-84
2023/11/04 12:36:38;;;;;;;1.13;0.80;;;;;;;;;;5050875;28;20218;-86
2023/11/04 12:39:07;;;;;;;0.85;0.85;;;;;;;;;;5048165;28;20182;-85
2023/11/04 12:41:34;;;;;;;1.02;1.02;;;;;;;;;;5058732;28;20240;-84
2023/11/04 12:44:02;;;;;;;0.70;0.70;;;;;;;;;;5049884;28;20179;-82
2023/11/04 12:46:30;;;;;;;1.42;0.90;;;;;;;;;;5046004;28;20194;-85
2023/11/04 12:48:58;;;;;;;2.15;0.98;;;;;;;;;;5050504;28;20249;-88
2023/11/04 12:51:25;;;;;;;1.60;0.85;;;;;;;;;;5045691;28;20192;-84
2023/11/04 12:53:55;;;;;;;1.23;1.10;;;;;;;;;;5045844;28;20187;-85
2023/11/04 12:56:24;;;;;;;1.92;1.05;;;;;;;;;;5026565;28;20206;-88
2023/11/04 12:58:53;;;;;;;0.82;0.82;;;;;;;;;;5029428;28;20205;-86
2023/11/04 13:01:21;;;;;;;1.23;1.00;;;;;;;;;;5031801;28;20230;-87
2023/11/04 13:03:49;;;;;;;0.90;0.90;;;;;;;;;;5024069;28;20210;-89
2023/11/04 13:06:17;;;;;;;1.40;1.30;;;;;;;;;;5020658;28;20221;-87
2023/11/04 13:08:44;;;;;;;1.85;1.27;;;;;;;;;;5037038;28;20622;-88
2023/11/04 13:11:13;;;;;;;5.20;1.98;;;;;;;;;;5035565;28;20293;-86
2023/11/04 13:13:40;;;;;;;0.82;0.82;;;;;;;;;;5033422;28;20286;-86
2023/11/04 13:16:10;;;;;;;1.02;1.02;;;;;;;;;;5027036;28;20215;-88
2023/11/04 13:18:38;;;;;;;1.40;1.30;;;;;;;;;;5024684;28;20745;-87
2023/11/04 13:21:06;;;;;;;1.40;0.75;;;;;;;;;;5032064;28;20726;-87
2023/11/04 13:23:34;;;;;;;1.20;0.80;;;;;;;;;;5033861;28;20199;-86
2023/11/04 13:26:02;;;;;;;1.05;1.05;;;;;;;;;;5034304;28;20245;-85
2023/11/04 13:28:31;;;;;;;0.95;0.93;;;;;;;;;;5035356;28;20206;-85
2023/11/04 13:30:58;;;;;;;0.80;0.80;;;;;;;;;;5035164;28;20202;-88
2023/11/04 13:33:26;;;;;;;2.03;1.15;;;;;;;;;;5028338;28;20207;-89
2023/11/04 13:35:54;;;;;;;0.80;0.80;;;;;;;;;;5021799;28;20696;-90
2023/11/04 13:38:22;;;;;;;3.55;1.13;;;;;;;;;;5022672;28;20198;-90
2023/11/04 13:40:50;;;;;;;1.13;1.02;;;;;;;;;;5032990;28;20222;-86
2023/11/04 13:43:18;;;;;;;0.70;0.70;;;;;;;;;;5023992;28;20203;-89
2023/11/04 13:45:47;;;;;;;2.40;1.00;;;;;;;;;;5034110;28;20652;-88
2023/11/04 13:48:16;;;;;;;1.67;0.93;;;;;;;;;;5027349;28;20198;-88
2023/11/04 13:50:43;;;;;;;0.98;0.88;;;;;;;;;;5026464;28;20205;-88
2023/11/04 13:53:10;;;;;;;0.88;0.88;;;;;;;;;;5023344;28;20221;-89
2023/11/04 13:55:38;;;;;;;1.13;1.00;;;;;;;;;;5025627;28;20317;-88
2023/11/04 13:58:06;;;;;;;1.00;1.00;;;;;;;;;;5018915;28;20233;-87
2023/11/04 14:00:33;;;;;;;1.25;1.15;;;;;;;;;;5019288;28;20209;-88
2023/11/04 14:03:02;;;;;;;1.15;1.00;;;;;;;;;;5027299;28;20225;-88
2023/11/04 14:05:29;;;;;;;0.88;0.88;;;;;;;;;;5022657;28;20792;-89
2023/11/04 14:07:57;;;;;;;3.33;1.52;;;;;;;;;;5029591;28;20229;-89
2023/11/04 14:10:25;;;;;;;1.58;1.30;;;;;;;;;;5033258;28;20206;-89
2023/11/04 14:12:52;;;;;;;1.45;1.35;;;;;;;;;;5032102;28;20198;-88
2023/11/04 14:15:20;;;;;;;1.08;0.93;;;;;;;;;;5022972;28;20226;-89
2023/11/04 14:17:47;;;;;;;1.13;1.10;;;;;;;;;;5025812;28;20202;-88
2023/11/04 14:20:17;;;;;;;2.95;1.20;;;;;;;;;;5018780;28;20664;-88
2023/11/04 14:22:44;;;;;;;2.33;1.55;;;;;;;;;;5021027;28;20261;-89
2023/11/04 14:25:12;;;;;;;1.80;1.55;;;;;;;;;;5023387;28;20218;-89
2023/11/04 14:27:39;;;;;;;2.47;2.28;;;;;;;;;;5025371;28;20653;-89
2023/11/04 14:30:08;;;;;;;2.33;2.00;;;;;;;;;;5021878;28;20205;-88
2023/11/04 14:32:36;;;;;;;2.33;1.77;;;;;;;;;;5029459;28;20202;-90
2023/11/04 14:35:04;;;;;;;2.25;1.73;;;;;;;;;;5021102;28;20233;-89
2023/11/04 14:37:34;;;;;;;1.27;1.17;;;;;;;;;;5022684;28;20207;-90
2023/11/04 14:40:02;;;;;;;1.33;1.20;;;;;;;;;;5031718;28;20648;-90
2023/11/04 14:42:29;;;;;;;1.45;1.20;;;;;;;;;;5028867;28;20300;-89
2023/11/04 14:44:57;;;;;;;0.93;0.88;;;;;;;;;;5023115;28;20745;-88
2023/11/04 14:47:24;;;;;;;1.85;1.00;;;;;;;;;;5028367;28;20285;-88